sensor_id;sensor_type;location;lat;lon;timestamp;P1;durP1;ratioP1;P2;durP2;ratioP2
32082;SDS011;18597;48.328;7.932;2024-02-04T00:00:43;8.33;;;6.33;;
32082;SDS011;18597;48.328;7.932;2024-02-04T00:03:09;6.13;;;5.43;;
32082;SDS011;18597;48.328;7.932;2024-02-04T00:05:35;6.60;;;6.00;;
32082;SDS011;18597;48.328;7.932;2024-02-04T00:08:02;9.70;;;6.67;;
32082;SDS011;18597;48.328;7.932;2024-02-04T00:10:28;6.87;;;6.17;;
32082;SDS011;18597;48.328;7.932;2024-02-04T00:12:54;6.03;;;5.53;;
32082;SDS011;18597;48.328;7.932;2024-02-04T00:15:20;5.00;;;4.57;;
32082;SDS011;18597;48.328;7.932;2024-02-04T00:17:46;6.60;;;6.10;;
32082;SDS011;18597;48.328;7.932;2024-02-04T00:20:11;8.30;;;6.27;;
32082;SDS011;18597;48.328;7.932;2024-02-04T00:22:37;5.13;;;4.60;;
32082;SDS011;18597;48.328;7.932;2024-02-04T00:25:04;6.27;;;5.30;;
32082;SDS011;18597;48.328;7.932;2024-02-04T00:27:32;7.77;;;5.30;;
32082;SDS011;18597;48.328;7.932;2024-02-04T00:29:58;5.10;;;4.70;;
32082;SDS011;18597;48.328;7.932;2024-02-04T00:32:24;5.73;;;5.23;;
32082;SDS011;18597;48.328;7.932;2024-02-04T00:34:51;5.87;;;5.37;;
32082;SDS011;18597;48.328;7.932;2024-02-04T00:37:18;5.37;;;4.87;;
32082;SDS011;18597;48.328;7.932;2024-02-04T00:39:44;5.17;;;4.77;;
32082;SDS011;18597;48.328;7.932;2024-02-04T00:42:10;6.23;;;5.30;;
32082;SDS011;18597;48.328;7.932;2024-02-04T00:44:36;6.93;;;5.17;;
32082;SDS011;18597;48.328;7.932;2024-02-04T00:47:03;4.87;;;4.50;;
32082;SDS011;18597;48.328;7.932;2024-02-04T00:49:29;9.30;;;4.80;;
32082;SDS011;18597;48.328;7.932;2024-02-04T00:51:55;4.53;;;4.13;;
32082;SDS011;18597;48.328;7.932;2024-02-04T00:54:21;5.27;;;4.83;;
32082;SDS011;18597;48.328;7.932;2024-02-04T00:56:46;6.23;;;4.33;;
32082;SDS011;18597;48.328;7.932;2024-02-04T00:59:12;4.23;;;3.97;;
32082;SDS011;18597;48.328;7.932;2024-02-04T01:01:38;3.37;;;3.17;;
32082;SDS011;18597;48.328;7.932;2024-02-04T01:04:04;2.93;;;2.70;;
32082;SDS011;18597;48.328;7.932;2024-02-04T01:06:30;3.23;;;3.07;;
32082;SDS011;18597;48.328;7.932;2024-02-04T01:08:56;3.23;;;3.03;;
32082;SDS011;18597;48.328;7.932;2024-02-04T01:11:22;3.27;;;3.17;;
32082;SDS011;18597;48.328;7.932;2024-02-04T01:13:48;3.17;;;2.97;;
32082;SDS011;18597;48.328;7.932;2024-02-04T01:16:14;2.80;;;2.70;;
32082;SDS011;18597;48.328;7.932;2024-02-04T01:18:40;3.30;;;3.03;;
32082;SDS011;18597;48.328;7.932;2024-02-04T01:21:06;4.43;;;4.03;;
32082;SDS011;18597;48.328;7.932;2024-02-04T01:23:33;2.10;;;2.10;;
32082;SDS011;18597;48.328;7.932;2024-02-04T01:25:59;2.03;;;1.93;;
32082;SDS011;18597;48.328;7.932;2024-02-04T01:28:25;2.50;;;2.40;;
32082;SDS011;18597;48.328;7.932;2024-02-04T01:30:51;3.60;;;2.37;;
32082;SDS011;18597;48.328;7.932;2024-02-04T01:33:17;2.47;;;2.20;;
32082;SDS011;18597;48.328;7.932;2024-02-04T01:35:42;2.40;;;2.30;;
32082;SDS011;18597;48.328;7.932;2024-02-04T01:38:08;2.53;;;2.43;;
32082;SDS011;18597;48.328;7.932;2024-02-04T01:40:34;3.03;;;2.83;;
32082;SDS011;18597;48.328;7.932;2024-02-04T01:43:00;2.57;;;2.57;;
32082;SDS011;18597;48.328;7.932;2024-02-04T01:45:26;2.27;;;2.17;;
32082;SDS011;18597;48.328;7.932;2024-02-04T01:47:53;2.43;;;2.33;;
32082;SDS011;18597;48.328;7.932;2024-02-04T01:50:19;1.97;;;1.87;;
32082;SDS011;18597;48.328;7.932;2024-02-04T01:52:46;2.67;;;2.47;;
32082;SDS011;18597;48.328;7.932;2024-02-04T01:55:12;2.40;;;2.30;;
32082;SDS011;18597;48.328;7.932;2024-02-04T01:57:39;3.33;;;3.23;;
32082;SDS011;18597;48.328;7.932;2024-02-04T02:00:05;2.03;;;1.93;;
32082;SDS011;18597;48.328;7.932;2024-02-04T02:02:34;2.10;;;2.00;;
32082;SDS011;18597;48.328;7.932;2024-02-04T02:05:03;2.43;;;2.33;;
32082;SDS011;18597;48.328;7.932;2024-02-04T02:07:30;2.67;;;2.57;;
32082;SDS011;18597;48.328;7.932;2024-02-04T02:09:56;3.03;;;2.83;;
32082;SDS011;18597;48.328;7.932;2024-02-04T02:12:25;2.43;;;2.33;;
32082;SDS011;18597;48.328;7.932;2024-02-04T02:15:01;2.83;;;2.63;;
32082;SDS011;18597;48.328;7.932;2024-02-04T02:17:38;2.47;;;2.40;;
32082;SDS011;18597;48.328;7.932;2024-02-04T02:20:29;2.70;;;2.50;;
32082;SDS011;18597;48.328;7.932;2024-02-04T02:23:36;1.93;;;1.93;;
32082;SDS011;18597;48.328;7.932;2024-02-04T02:26:31;2.80;;;2.20;;
32082;SDS011;18597;48.328;7.932;2024-02-04T02:28:57;3.40;;;2.43;;
32082;SDS011;18597;48.328;7.932;2024-02-04T02:31:23;3.13;;;2.50;;
32082;SDS011;18597;48.328;7.932;2024-02-04T02:33:49;2.57;;;2.47;;
32082;SDS011;18597;48.328;7.932;2024-02-04T02:36:17;3.30;;;3.00;;
32082;SDS011;18597;48.328;7.932;2024-02-04T02:39:23;2.83;;;2.60;;
32082;SDS011;18597;48.328;7.932;2024-02-04T02:41:40;2.80;;;2.63;;
32082;SDS011;18597;48.328;7.932;2024-02-04T02:44:09;3.03;;;2.93;;
32082;SDS011;18597;48.328;7.932;2024-02-04T02:46:36;2.83;;;2.73;;
32082;SDS011;18597;48.328;7.932;2024-02-04T02:49:03;2.57;;;2.50;;
32082;SDS011;18597;48.328;7.932;2024-02-04T02:51:29;2.80;;;2.70;;
32082;SDS011;18597;48.328;7.932;2024-02-04T02:53:55;2.70;;;2.53;;
32082;SDS011;18597;48.328;7.932;2024-02-04T02:56:21;2.73;;;2.53;;
32082;SDS011;18597;48.328;7.932;2024-02-04T02:58:47;2.20;;;2.10;;
32082;SDS011;18597;48.328;7.932;2024-02-04T03:01:12;2.30;;;2.20;;
32082;SDS011;18597;48.328;7.932;2024-02-04T03:03:38;2.37;;;2.27;;
32082;SDS011;18597;48.328;7.932;2024-02-04T03:06:04;2.27;;;2.17;;
32082;SDS011;18597;48.328;7.932;2024-02-04T03:08:30;3.07;;;2.43;;
32082;SDS011;18597;48.328;7.932;2024-02-04T03:10:56;2.30;;;2.20;;
32082;SDS011;18597;48.328;7.932;2024-02-04T03:13:22;2.20;;;2.10;;
32082;SDS011;18597;48.328;7.932;2024-02-04T03:15:48;3.60;;;2.50;;
32082;SDS011;18597;48.328;7.932;2024-02-04T03:18:14;2.07;;;1.87;;
32082;SDS011;18597;48.328;7.932;2024-02-04T03:20:39;2.47;;;2.37;;
32082;SDS011;18597;48.328;7.932;2024-02-04T03:23:05;2.20;;;2.10;;
32082;SDS011;18597;48.328;7.932;2024-02-04T03:25:31;1.90;;;1.80;;
32082;SDS011;18597;48.328;7.932;2024-02-04T03:27:57;2.57;;;2.27;;
32082;SDS011;18597;48.328;7.932;2024-02-04T03:30:22;2.40;;;2.30;;
32082;SDS011;18597;48.328;7.932;2024-02-04T03:32:48;2.37;;;2.27;;
32082;SDS011;18597;48.328;7.932;2024-02-04T03:35:14;2.10;;;2.00;;
32082;SDS011;18597;48.328;7.932;2024-02-04T03:37:40;2.10;;;2.00;;
32082;SDS011;18597;48.328;7.932;2024-02-04T03:40:06;1.67;;;1.67;;
32082;SDS011;18597;48.328;7.932;2024-02-04T03:42:32;1.80;;;1.70;;
32082;SDS011;18597;48.328;7.932;2024-02-04T03:44:58;2.23;;;2.13;;
32082;SDS011;18597;48.328;7.932;2024-02-04T03:47:24;2.43;;;2.07;;
32082;SDS011;18597;48.328;7.932;2024-02-04T03:49:49;1.77;;;1.77;;
32082;SDS011;18597;48.328;7.932;2024-02-04T03:52:15;1.63;;;1.57;;
32082;SDS011;18597;48.328;7.932;2024-02-04T03:54:41;1.73;;;1.73;;
32082;SDS011;18597;48.328;7.932;2024-02-04T03:57:07;1.90;;;1.90;;
32082;SDS011;18597;48.328;7.932;2024-02-04T03:59:32;2.00;;;2.00;;
32082;SDS011;18597;48.328;7.932;2024-02-04T04:01:58;1.77;;;1.73;;
32082;SDS011;18597;48.328;7.932;2024-02-04T04:04:24;1.73;;;1.63;;
32082;SDS011;18597;48.328;7.932;2024-02-04T04:06:51;1.67;;;1.67;;
32082;SDS011;18597;48.328;7.932;2024-02-04T04:09:17;1.60;;;1.60;;
32082;SDS011;18597;48.328;7.932;2024-02-04T04:11:42;2.03;;;2.03;;
32082;SDS011;18597;48.328;7.932;2024-02-04T04:14:08;3.47;;;2.23;;
32082;SDS011;18597;48.328;7.932;2024-02-04T04:16:34;1.40;;;1.40;;
32082;SDS011;18597;48.328;7.932;2024-02-04T04:19:00;2.37;;;2.30;;
32082;SDS011;18597;48.328;7.932;2024-02-04T04:21:25;2.20;;;2.10;;
32082;SDS011;18597;48.328;7.932;2024-02-04T04:23:52;2.13;;;2.07;;
32082;SDS011;18597;48.328;7.932;2024-02-04T04:26:17;3.50;;;2.70;;
32082;SDS011;18597;48.328;7.932;2024-02-04T04:28:43;1.60;;;1.60;;
32082;SDS011;18597;48.328;7.932;2024-02-04T04:31:09;3.03;;;1.60;;
32082;SDS011;18597;48.328;7.932;2024-02-04T04:33:36;1.33;;;1.33;;
32082;SDS011;18597;48.328;7.932;2024-02-04T04:36:02;1.60;;;1.60;;
32082;SDS011;18597;48.328;7.932;2024-02-04T04:38:28;1.63;;;1.53;;
32082;SDS011;18597;48.328;7.932;2024-02-04T04:40:54;1.50;;;1.50;;
32082;SDS011;18597;48.328;7.932;2024-02-04T04:43:19;1.43;;;1.43;;
32082;SDS011;18597;48.328;7.932;2024-02-04T04:45:45;3.23;;;1.83;;
32082;SDS011;18597;48.328;7.932;2024-02-04T04:48:11;1.77;;;1.67;;
32082;SDS011;18597;48.328;7.932;2024-02-04T04:50:37;2.10;;;1.60;;
32082;SDS011;18597;48.328;7.932;2024-02-04T04:53:03;3.80;;;1.47;;
32082;SDS011;18597;48.328;7.932;2024-02-04T04:55:29;1.37;;;1.37;;
32082;SDS011;18597;48.328;7.932;2024-02-04T04:57:54;1.67;;;1.60;;
32082;SDS011;18597;48.328;7.932;2024-02-04T05:00:20;1.47;;;1.47;;
32082;SDS011;18597;48.328;7.932;2024-02-04T05:02:46;1.53;;;1.43;;
32082;SDS011;18597;48.328;7.932;2024-02-04T05:05:13;3.83;;;2.33;;
32082;SDS011;18597;48.328;7.932;2024-02-04T05:07:39;1.57;;;1.40;;
32082;SDS011;18597;48.328;7.932;2024-02-04T05:10:05;1.53;;;1.53;;
32082;SDS011;18597;48.328;7.932;2024-02-04T05:12:32;1.50;;;1.50;;
32082;SDS011;18597;48.328;7.932;2024-02-04T05:15:00;1.40;;;1.30;;
32082;SDS011;18597;48.328;7.932;2024-02-04T05:17:26;1.50;;;1.50;;
32082;SDS011;18597;48.328;7.932;2024-02-04T05:19:52;1.43;;;1.43;;
32082;SDS011;18597;48.328;7.932;2024-02-04T05:22:17;1.30;;;1.30;;
32082;SDS011;18597;48.328;7.932;2024-02-04T05:24:43;1.73;;;1.00;;
32082;SDS011;18597;48.328;7.932;2024-02-04T05:27:09;1.27;;;1.23;;
32082;SDS011;18597;48.328;7.932;2024-02-04T05:29:35;1.43;;;1.43;;
32082;SDS011;18597;48.328;7.932;2024-02-04T05:32:01;1.20;;;1.20;;
32082;SDS011;18597;48.328;7.932;2024-02-04T05:34:26;1.00;;;1.00;;
32082;SDS011;18597;48.328;7.932;2024-02-04T05:36:52;8.50;;;1.33;;
32082;SDS011;18597;48.328;7.932;2024-02-04T05:39:18;1.83;;;1.67;;
32082;SDS011;18597;48.328;7.932;2024-02-04T05:41:44;0.90;;;0.90;;
32082;SDS011;18597;48.328;7.932;2024-02-04T05:44:10;1.03;;;1.03;;
32082;SDS011;18597;48.328;7.932;2024-02-04T05:46:36;1.10;;;1.10;;
32082;SDS011;18597;48.328;7.932;2024-02-04T05:49:02;3.20;;;1.10;;
32082;SDS011;18597;48.328;7.932;2024-02-04T05:51:28;1.57;;;1.47;;
32082;SDS011;18597;48.328;7.932;2024-02-04T05:53:54;0.77;;;0.77;;
32082;SDS011;18597;48.328;7.932;2024-02-04T05:56:20;1.10;;;1.10;;
32082;SDS011;18597;48.328;7.932;2024-02-04T05:58:46;1.37;;;1.23;;
32082;SDS011;18597;48.328;7.932;2024-02-04T06:01:12;1.90;;;0.80;;
32082;SDS011;18597;48.328;7.932;2024-02-04T06:03:41;0.83;;;0.83;;
32082;SDS011;18597;48.328;7.932;2024-02-04T06:06:08;1.80;;;0.60;;
32082;SDS011;18597;48.328;7.932;2024-02-04T06:08:40;0.70;;;0.70;;
32082;SDS011;18597;48.328;7.932;2024-02-04T06:11:08;0.80;;;0.80;;
32082;SDS011;18597;48.328;7.932;2024-02-04T06:13:36;0.80;;;0.80;;
32082;SDS011;18597;48.328;7.932;2024-02-04T06:16:03;0.80;;;0.80;;
32082;SDS011;18597;48.328;7.932;2024-02-04T06:18:29;1.10;;;1.10;;
32082;SDS011;18597;48.328;7.932;2024-02-04T06:20:55;1.50;;;1.40;;
32082;SDS011;18597;48.328;7.932;2024-02-04T06:23:21;0.60;;;0.60;;
32082;SDS011;18597;48.328;7.932;2024-02-04T06:25:46;0.77;;;0.77;;
32082;SDS011;18597;48.328;7.932;2024-02-04T06:28:13;0.50;;;0.50;;
32082;SDS011;18597;48.328;7.932;2024-02-04T06:30:38;0.40;;;0.40;;
32082;SDS011;18597;48.328;7.932;2024-02-04T06:33:04;0.50;;;0.50;;
32082;SDS011;18597;48.328;7.932;2024-02-04T06:35:31;1.90;;;0.60;;
32082;SDS011;18597;48.328;7.932;2024-02-04T06:37:57;1.80;;;0.30;;
32082;SDS011;18597;48.328;7.932;2024-02-04T06:40:23;0.23;;;0.23;;
32082;SDS011;18597;48.328;7.932;2024-02-04T06:42:49;0.37;;;0.37;;
32082;SDS011;18597;48.328;7.932;2024-02-04T06:45:15;0.70;;;0.70;;
32082;SDS011;18597;48.328;7.932;2024-02-04T06:47:44;0.40;;;0.40;;
32082;SDS011;18597;48.328;7.932;2024-02-04T06:50:10;0.93;;;0.40;;
32082;SDS011;18597;48.328;7.932;2024-02-04T06:52:41;0.30;;;0.30;;
32082;SDS011;18597;48.328;7.932;2024-02-04T06:55:08;0.30;;;0.30;;
32082;SDS011;18597;48.328;7.932;2024-02-04T06:57:34;0.50;;;0.50;;
32082;SDS011;18597;48.328;7.932;2024-02-04T06:59:59;0.50;;;0.50;;
32082;SDS011;18597;48.328;7.932;2024-02-04T07:02:25;0.30;;;0.30;;
32082;SDS011;18597;48.328;7.932;2024-02-04T07:04:52;1.60;;;0.67;;
32082;SDS011;18597;48.328;7.932;2024-02-04T07:07:18;0.57;;;0.57;;
32082;SDS011;18597;48.328;7.932;2024-02-04T07:09:44;0.30;;;0.30;;
32082;SDS011;18597;48.328;7.932;2024-02-04T07:12:10;1.63;;;0.70;;
32082;SDS011;18597;48.328;7.932;2024-02-04T07:14:35;3.60;;;1.80;;
32082;SDS011;18597;48.328;7.932;2024-02-04T07:17:01;1.00;;;1.00;;
32082;SDS011;18597;48.328;7.932;2024-02-04T07:19:27;2.10;;;1.00;;
32082;SDS011;18597;48.328;7.932;2024-02-04T07:21:53;0.50;;;0.50;;
32082;SDS011;18597;48.328;7.932;2024-02-04T07:24:18;0.60;;;0.60;;
32082;SDS011;18597;48.328;7.932;2024-02-04T07:26:46;0.50;;;0.50;;
32082;SDS011;18597;48.328;7.932;2024-02-04T07:29:12;0.40;;;0.40;;
32082;SDS011;18597;48.328;7.932;2024-02-04T07:31:38;0.50;;;0.50;;
32082;SDS011;18597;48.328;7.932;2024-02-04T07:34:04;0.50;;;0.50;;
32082;SDS011;18597;48.328;7.932;2024-02-04T07:36:30;1.13;;;1.13;;
32082;SDS011;18597;48.328;7.932;2024-02-04T07:38:56;0.60;;;0.60;;
32082;SDS011;18597;48.328;7.932;2024-02-04T07:41:23;0.47;;;0.47;;
32082;SDS011;18597;48.328;7.932;2024-02-04T07:43:49;0.43;;;0.43;;
32082;SDS011;18597;48.328;7.932;2024-02-04T07:46:15;1.03;;;1.00;;
32082;SDS011;18597;48.328;7.932;2024-02-04T07:48:41;0.53;;;0.53;;
32082;SDS011;18597;48.328;7.932;2024-02-04T07:51:27;1.00;;;1.00;;
32082;SDS011;18597;48.328;7.932;2024-02-04T07:53:53;0.50;;;0.50;;
32082;SDS011;18597;48.328;7.932;2024-02-04T07:56:19;0.70;;;0.70;;
32082;SDS011;18597;48.328;7.932;2024-02-04T07:58:44;0.63;;;0.63;;
32082;SDS011;18597;48.328;7.932;2024-02-04T08:01:10;0.43;;;0.43;;
32082;SDS011;18597;48.328;7.932;2024-02-04T08:03:36;0.43;;;0.43;;
32082;SDS011;18597;48.328;7.932;2024-02-04T08:06:02;0.70;;;0.70;;
32082;SDS011;18597;48.328;7.932;2024-02-04T08:08:28;2.00;;;0.73;;
32082;SDS011;18597;48.328;7.932;2024-02-04T08:10:54;0.47;;;0.47;;
32082;SDS011;18597;48.328;7.932;2024-02-04T08:13:20;0.50;;;0.50;;
32082;SDS011;18597;48.328;7.932;2024-02-04T08:15:45;0.43;;;0.43;;
32082;SDS011;18597;48.328;7.932;2024-02-04T08:18:11;1.27;;;0.63;;
32082;SDS011;18597;48.328;7.932;2024-02-04T08:20:37;0.70;;;0.70;;
32082;SDS011;18597;48.328;7.932;2024-02-04T08:23:03;0.70;;;0.70;;
32082;SDS011;18597;48.328;7.932;2024-02-04T08:25:29;1.20;;;1.20;;
32082;SDS011;18597;48.328;7.932;2024-02-04T08:27:54;0.97;;;0.97;;
32082;SDS011;18597;48.328;7.932;2024-02-04T08:30:20;0.60;;;0.60;;
32082;SDS011;18597;48.328;7.932;2024-02-04T08:32:46;1.13;;;0.60;;
32082;SDS011;18597;48.328;7.932;2024-02-04T08:35:12;0.63;;;0.63;;
32082;SDS011;18597;48.328;7.932;2024-02-04T08:37:37;1.60;;;0.60;;
32082;SDS011;18597;48.328;7.932;2024-02-04T08:40:05;0.30;;;0.30;;
32082;SDS011;18597;48.328;7.932;2024-02-04T08:42:32;0.30;;;0.30;;
32082;SDS011;18597;48.328;7.932;2024-02-04T08:44:57;1.83;;;0.40;;
32082;SDS011;18597;48.328;7.932;2024-02-04T08:47:23;0.73;;;0.70;;
32082;SDS011;18597;48.328;7.932;2024-02-04T08:49:49;1.20;;;1.10;;
32082;SDS011;18597;48.328;7.932;2024-02-04T08:52:15;1.20;;;1.20;;
32082;SDS011;18597;48.328;7.932;2024-02-04T08:54:40;1.90;;;1.90;;
32082;SDS011;18597;48.328;7.932;2024-02-04T08:57:06;1.00;;;1.00;;
32082;SDS011;18597;48.328;7.932;2024-02-04T08:59:32;1.17;;;1.17;;
32082;SDS011;18597;48.328;7.932;2024-02-04T09:01:58;0.60;;;0.60;;
32082;SDS011;18597;48.328;7.932;2024-02-04T09:04:24;0.83;;;0.83;;
32082;SDS011;18597;48.328;7.932;2024-02-04T09:06:49;0.70;;;0.70;;
32082;SDS011;18597;48.328;7.932;2024-02-04T09:09:15;1.10;;;1.10;;
32082;SDS011;18597;48.328;7.932;2024-02-04T09:11:41;0.73;;;0.73;;
32082;SDS011;18597;48.328;7.932;2024-02-04T09:14:07;1.10;;;1.10;;
32082;SDS011;18597;48.328;7.932;2024-02-04T09:16:32;0.60;;;0.60;;
32082;SDS011;18597;48.328;7.932;2024-02-04T09:18:58;0.40;;;0.30;;
32082;SDS011;18597;48.328;7.932;2024-02-04T09:21:24;2.43;;;0.40;;
32082;SDS011;18597;48.328;7.932;2024-02-04T09:23:50;0.40;;;0.40;;
32082;SDS011;18597;48.328;7.932;2024-02-04T09:26:16;0.30;;;0.30;;
32082;SDS011;18597;48.328;7.932;2024-02-04T09:28:42;0.27;;;0.27;;
32082;SDS011;18597;48.328;7.932;2024-02-04T09:31:08;0.30;;;0.30;;
32082;SDS011;18597;48.328;7.932;2024-02-04T09:33:34;4.23;;;0.50;;
32082;SDS011;18597;48.328;7.932;2024-02-04T09:36:03;0.60;;;0.60;;
32082;SDS011;18597;48.328;7.932;2024-02-04T09:38:29;0.63;;;0.60;;
32082;SDS011;18597;48.328;7.932;2024-02-04T09:40:55;0.50;;;0.50;;
32082;SDS011;18597;48.328;7.932;2024-02-04T09:43:21;1.03;;;0.40;;
32082;SDS011;18597;48.328;7.932;2024-02-04T09:45:47;0.80;;;0.80;;
32082;SDS011;18597;48.328;7.932;2024-02-04T09:48:14;0.60;;;0.60;;
32082;SDS011;18597;48.328;7.932;2024-02-04T09:50:43;0.77;;;0.30;;
32082;SDS011;18597;48.328;7.932;2024-02-04T09:53:10;1.30;;;0.60;;
32082;SDS011;18597;48.328;7.932;2024-02-04T09:55:40;0.50;;;0.50;;
32082;SDS011;18597;48.328;7.932;2024-02-04T09:58:07;1.90;;;0.40;;
32082;SDS011;18597;48.328;7.932;2024-02-04T10:00:33;1.70;;;1.70;;
32082;SDS011;18597;48.328;7.932;2024-02-04T10:03:00;0.50;;;0.50;;
32082;SDS011;18597;48.328;7.932;2024-02-04T10:05:27;0.30;;;0.30;;
32082;SDS011;18597;48.328;7.932;2024-02-04T10:07:53;0.53;;;0.53;;
32082;SDS011;18597;48.328;7.932;2024-02-04T10:10:18;0.90;;;0.90;;
32082;SDS011;18597;48.328;7.932;2024-02-04T10:12:44;1.17;;;1.17;;
32082;SDS011;18597;48.328;7.932;2024-02-04T10:15:10;0.90;;;0.90;;
32082;SDS011;18597;48.328;7.932;2024-02-04T10:17:41;1.77;;;0.60;;
32082;SDS011;18597;48.328;7.932;2024-02-04T10:20:10;3.60;;;3.30;;
32082;SDS011;18597;48.328;7.932;2024-02-04T10:22:37;1.60;;;0.90;;
32082;SDS011;18597;48.328;7.932;2024-02-04T10:25:10;0.60;;;0.60;;
32082;SDS011;18597;48.328;7.932;2024-02-04T10:27:37;4.93;;;4.53;;
32082;SDS011;18597;48.328;7.932;2024-02-04T10:30:04;1.40;;;1.40;;
32082;SDS011;18597;48.328;7.932;2024-02-04T10:32:30;3.73;;;1.10;;
32082;SDS011;18597;48.328;7.932;2024-02-04T10:34:57;0.70;;;0.70;;
32082;SDS011;18597;48.328;7.932;2024-02-04T10:37:24;1.40;;;1.30;;
32082;SDS011;18597;48.328;7.932;2024-02-04T10:39:50;0.80;;;0.80;;
32082;SDS011;18597;48.328;7.932;2024-02-04T10:42:16;3.00;;;2.90;;
32082;SDS011;18597;48.328;7.932;2024-02-04T10:44:47;1.20;;;1.20;;
32082;SDS011;18597;48.328;7.932;2024-02-04T10:47:17;0.70;;;0.70;;
32082;SDS011;18597;48.328;7.932;2024-02-04T10:49:50;2.27;;;1.37;;
32082;SDS011;18597;48.328;7.932;2024-02-04T10:52:18;1.40;;;1.40;;
32082;SDS011;18597;48.328;7.932;2024-02-04T10:54:46;0.80;;;0.80;;
32082;SDS011;18597;48.328;7.932;2024-02-04T10:57:13;0.50;;;0.50;;
32082;SDS011;18597;48.328;7.932;2024-02-04T10:59:47;0.90;;;0.90;;
32082;SDS011;18597;48.328;7.932;2024-02-04T11:02:14;0.50;;;0.40;;
32082;SDS011;18597;48.328;7.932;2024-02-04T11:04:42;0.33;;;0.33;;
32082;SDS011;18597;48.328;7.932;2024-02-04T11:07:09;0.53;;;0.53;;
32082;SDS011;18597;48.328;7.932;2024-02-04T11:09:39;0.50;;;0.50;;
32082;SDS011;18597;48.328;7.932;2024-02-04T11:12:06;1.30;;;1.30;;
32082;SDS011;18597;48.328;7.932;2024-02-04T11:14:40;1.47;;;1.47;;
32082;SDS011;18597;48.328;7.932;2024-02-04T11:20:14;0.83;;;0.83;;
32082;SDS011;18597;48.328;7.932;2024-02-04T11:26:24;0.40;;;0.40;;
32082;SDS011;18597;48.328;7.932;2024-02-04T11:28:51;0.70;;;0.70;;
32082;SDS011;18597;48.328;7.932;2024-02-04T11:31:17;0.40;;;0.33;;
32082;SDS011;18597;48.328;7.932;2024-02-04T11:33:44;0.43;;;0.43;;
32082;SDS011;18597;48.328;7.932;2024-02-04T11:36:12;0.37;;;0.37;;
32082;SDS011;18597;48.328;7.932;2024-02-04T11:38:40;0.53;;;0.53;;
32082;SDS011;18597;48.328;7.932;2024-02-04T11:41:06;0.40;;;0.40;;
32082;SDS011;18597;48.328;7.932;2024-02-04T11:43:33;1.70;;;0.40;;
32082;SDS011;18597;48.328;7.932;2024-02-04T11:46:00;0.70;;;0.37;;
32082;SDS011;18597;48.328;7.932;2024-02-04T11:48:29;0.30;;;0.30;;
32082;SDS011;18597;48.328;7.932;2024-02-04T11:50:58;0.43;;;0.43;;
32082;SDS011;18597;48.328;7.932;2024-02-04T11:53:26;1.50;;;1.40;;
32082;SDS011;18597;48.328;7.932;2024-02-04T11:55:55;3.40;;;1.20;;
32082;SDS011;18597;48.328;7.932;2024-02-04T11:58:21;0.70;;;0.40;;
32082;SDS011;18597;48.328;7.932;2024-02-04T12:00:48;0.40;;;0.40;;
32082;SDS011;18597;48.328;7.932;2024-02-04T12:03:18;0.30;;;0.30;;
32082;SDS011;18597;48.328;7.932;2024-02-04T12:05:55;0.40;;;0.40;;
32082;SDS011;18597;48.328;7.932;2024-02-04T12:08:22;0.40;;;0.40;;
32082;SDS011;18597;48.328;7.932;2024-02-04T12:10:49;0.43;;;0.43;;
32082;SDS011;18597;48.328;7.932;2024-02-04T12:13:16;0.93;;;0.93;;
32082;SDS011;18597;48.328;7.932;2024-02-04T12:15:45;2.50;;;1.60;;
32082;SDS011;18597;48.328;7.932;2024-02-04T12:18:13;2.93;;;1.93;;
32082;SDS011;18597;48.328;7.932;2024-02-04T12:20:41;1.27;;;1.27;;
32082;SDS011;18597;48.328;7.932;2024-02-04T12:23:07;1.43;;;0.90;;
32082;SDS011;18597;48.328;7.932;2024-02-04T12:25:33;1.50;;;1.40;;
32082;SDS011;18597;48.328;7.932;2024-02-04T12:28:01;0.37;;;0.37;;
32082;SDS011;18597;48.328;7.932;2024-02-04T12:30:29;1.70;;;1.70;;
32082;SDS011;18597;48.328;7.932;2024-02-04T12:32:56;2.17;;;2.07;;
32082;SDS011;18597;48.328;7.932;2024-02-04T12:35:25;9.13;;;6.17;;
32082;SDS011;18597;48.328;7.932;2024-02-04T12:37:53;1.83;;;1.83;;
32082;SDS011;18597;48.328;7.932;2024-02-04T12:40:21;2.20;;;0.90;;
32082;SDS011;18597;48.328;7.932;2024-02-04T12:42:57;0.50;;;0.50;;
32082;SDS011;18597;48.328;7.932;2024-02-04T12:45:26;0.93;;;0.93;;
32082;SDS011;18597;48.328;7.932;2024-02-04T12:47:54;0.53;;;0.53;;
32082;SDS011;18597;48.328;7.932;2024-02-04T12:50:22;0.80;;;0.80;;
32082;SDS011;18597;48.328;7.932;2024-02-04T12:53:01;0.60;;;0.60;;
32082;SDS011;18597;48.328;7.932;2024-02-04T12:55:31;0.37;;;0.37;;
32082;SDS011;18597;48.328;7.932;2024-02-04T12:58:01;0.40;;;0.40;;
32082;SDS011;18597;48.328;7.932;2024-02-04T13:00:29;0.30;;;0.30;;
32082;SDS011;18597;48.328;7.932;2024-02-04T13:02:57;0.43;;;0.43;;
32082;SDS011;18597;48.328;7.932;2024-02-04T13:05:23;0.30;;;0.30;;
32082;SDS011;18597;48.328;7.932;2024-02-04T13:07:51;0.70;;;0.70;;
32082;SDS011;18597;48.328;7.932;2024-02-04T13:10:23;0.77;;;0.77;;
32082;SDS011;18597;48.328;7.932;2024-02-04T13:13:07;0.50;;;0.40;;
32082;SDS011;18597;48.328;7.932;2024-02-04T13:15:42;0.70;;;0.70;;
32082;SDS011;18597;48.328;7.932;2024-02-04T13:18:09;1.07;;;1.07;;
32082;SDS011;18597;48.328;7.932;2024-02-04T13:20:36;0.83;;;0.83;;
32082;SDS011;18597;48.328;7.932;2024-02-04T13:23:03;0.63;;;0.63;;
32082;SDS011;18597;48.328;7.932;2024-02-04T13:25:30;0.70;;;0.70;;
32082;SDS011;18597;48.328;7.932;2024-02-04T13:27:56;1.63;;;1.63;;
32082;SDS011;18597;48.328;7.932;2024-02-04T13:30:22;1.80;;;0.50;;
32082;SDS011;18597;48.328;7.932;2024-02-04T13:32:48;1.27;;;1.27;;
32082;SDS011;18597;48.328;7.932;2024-02-04T13:35:15;1.00;;;1.00;;
32082;SDS011;18597;48.328;7.932;2024-02-04T13:37:42;0.80;;;0.80;;
32082;SDS011;18597;48.328;7.932;2024-02-04T13:40:14;1.70;;;1.03;;
32082;SDS011;18597;48.328;7.932;2024-02-04T13:42:41;0.73;;;0.73;;
32082;SDS011;18597;48.328;7.932;2024-02-04T13:45:07;0.67;;;0.67;;
32082;SDS011;18597;48.328;7.932;2024-02-04T13:47:33;0.30;;;0.30;;
32082;SDS011;18597;48.328;7.932;2024-02-04T13:50:00;0.70;;;0.70;;
32082;SDS011;18597;48.328;7.932;2024-02-04T13:52:27;0.53;;;0.53;;
32082;SDS011;18597;48.328;7.932;2024-02-04T13:54:53;0.90;;;0.90;;
32082;SDS011;18597;48.328;7.932;2024-02-04T13:57:19;1.00;;;1.00;;
32082;SDS011;18597;48.328;7.932;2024-02-04T13:59:45;1.10;;;1.10;;
32082;SDS011;18597;48.328;7.932;2024-02-04T14:02:10;1.70;;;1.70;;
32082;SDS011;18597;48.328;7.932;2024-02-04T14:04:36;0.70;;;0.70;;
32082;SDS011;18597;48.328;7.932;2024-02-04T14:07:02;5.00;;;1.77;;
32082;SDS011;18597;48.328;7.932;2024-02-04T14:09:28;0.73;;;0.73;;
32082;SDS011;18597;48.328;7.932;2024-02-04T14:11:54;1.13;;;1.13;;
32082;SDS011;18597;48.328;7.932;2024-02-04T14:14:22;1.70;;;1.00;;
32082;SDS011;18597;48.328;7.932;2024-02-04T14:16:49;0.70;;;0.70;;
32082;SDS011;18597;48.328;7.932;2024-02-04T14:19:15;1.07;;;1.00;;
32082;SDS011;18597;48.328;7.932;2024-02-04T14:21:41;0.50;;;0.50;;
32082;SDS011;18597;48.328;7.932;2024-02-04T14:24:07;0.40;;;0.40;;
32082;SDS011;18597;48.328;7.932;2024-02-04T14:26:34;0.80;;;0.60;;
32082;SDS011;18597;48.328;7.932;2024-02-04T14:29:00;0.60;;;0.40;;
32082;SDS011;18597;48.328;7.932;2024-02-04T14:31:25;1.70;;;1.70;;
32082;SDS011;18597;48.328;7.932;2024-02-04T14:33:51;1.50;;;0.90;;
32082;SDS011;18597;48.328;7.932;2024-02-04T14:36:17;0.77;;;0.77;;
32082;SDS011;18597;48.328;7.932;2024-02-04T14:38:43;0.80;;;0.80;;
32082;SDS011;18597;48.328;7.932;2024-02-04T14:41:09;1.03;;;1.03;;
32082;SDS011;18597;48.328;7.932;2024-02-04T14:43:35;0.93;;;0.93;;
32082;SDS011;18597;48.328;7.932;2024-02-04T14:46:01;1.10;;;0.70;;
32082;SDS011;18597;48.328;7.932;2024-02-04T14:48:27;1.83;;;1.83;;
32082;SDS011;18597;48.328;7.932;2024-02-04T14:50:53;2.53;;;1.70;;
32082;SDS011;18597;48.328;7.932;2024-02-04T14:53:19;3.10;;;1.73;;